Time;durP1;ratioP1;P1;durP2;ratioP2;P2;SDS_P1;SDS_P2;PMS_P1;PMS_P2;Temp;Humidity;BMP_temperature;BMP_pressure;BME280_temperature;BME280_humidity;BME280_pressure;Samples;Min_cycle;Max_cycle;Signal;HPM_P1;HPM_P2
2022/09/06 00:00:45;;;;;;;;;4.00;4.00;;;;;24.04;56.74;100883.25;2097301;28;47204;-62
2022/09/06 00:01:45;;;;;;;;;5.75;5.00;;;;;24.03;56.45;100878.81;2088117;28;47285;-61
2022/09/06 00:02:46;;;;;;;;;4.67;4.67;;;;;24.03;56.74;100882.41;2088101;28;48049;-61
2022/09/06 00:03:46;;;;;;;;;5.00;5.00;;;;;24.02;56.67;100879.81;2097109;28;47994;-61
2022/09/06 00:04:47;;;;;;;;;4.33;4.33;;;;;24.02;57.02;100887.94;2098556;28;47903;-61
2022/09/06 00:05:49;;;;;;;;;3.75;3.75;;;;;24.01;56.68;100883.47;2100573;27;47910;-61
2022/09/06 00:06:49;;;;;;;;;4.00;3.25;;;;;23.98;56.52;100889.13;2097112;28;47453;-62
2022/09/06 00:07:50;;;;;;;;;3.67;3.67;;;;;23.95;56.57;100890.22;2097209;28;47969;-62
2022/09/06 00:08:50;;;;;;;;;4.00;4.00;;;;;23.93;56.71;100889.47;2105056;28;47314;-61
2022/09/06 00:09:51;;;;;;;;;7.25;6.00;;;;;23.94;56.58;100893.91;2105619;27;47619;-62
2022/09/06 00:10:57;;;;;;;;;3.50;3.50;;;;;23.94;56.83;100893.91;2104604;28;47250;-62
2022/09/06 00:11:58;;;;;;;;;4.00;4.00;;;;;23.94;57.10;100893.91;2097401;28;47421;-62
2022/09/06 00:13:03;;;;;;;;;4.67;4.67;;;;;23.93;57.00;100889.47;2098765;28;47931;-62
2022/09/06 00:14:04;;;;;;;;;4.80;4.80;;;;;23.92;56.69;100887.75;2105214;28;47426;-62
2022/09/06 00:15:05;;;;;;;;;5.00;5.00;;;;;23.91;57.00;100890.56;2105161;28;47136;-61
2022/09/06 00:16:12;;;;;;;;;5.00;5.00;;;;;23.90;56.71;100886.13;2076442;28;47627;-62
2022/09/06 00:17:12;;;;;;;;;5.00;5.00;;;;;23.90;57.00;100888.84;2080445;28;47248;-62
2022/09/06 00:18:12;;;;;;;;;6.50;5.50;;;;;23.90;57.14;100889.72;2099945;28;47533;-62
2022/09/06 00:19:13;;;;;;;;;5.00;5.00;;;;;23.89;57.16;100900.69;2096725;28;47806;-63
2022/09/06 00:20:14;;;;;;;;;5.25;5.25;;;;;23.89;57.37;100901.53;2100553;28;47805;-62
2022/09/06 00:21:17;;;;;;;;;5.00;5.00;;;;;23.88;57.22;100896.22;2105010;28;47160;-61
2022/09/06 00:22:17;;;;;;;;;3.80;3.80;;;;;23.87;57.28;100898.06;2105284;28;47691;-62
2022/09/06 00:23:18;;;;;;;;;4.00;4.00;;;;;23.85;57.33;100893.72;2104911;28;47399;-62
2022/09/06 00:24:18;;;;;;;;;4.00;4.00;;;;;23.82;57.42;100899.38;2103418;28;47943;-61
2022/09/06 00:25:19;;;;;;;;;5.00;5.00;;;;;23.81;57.30;100901.22;2090793;28;47570;-62
2022/09/06 00:26:21;;;;;;;;;5.25;4.75;;;;;23.82;57.32;100902.97;2095373;28;47401;-63
2022/09/06 00:27:21;;;;;;;;;6.80;5.00;;;;;23.81;57.53;100903.06;2111786;27;47751;-62
2022/09/06 00:28:22;;;;;;;;;5.00;5.00;;;;;23.79;57.22;100895.06;2109290;27;46453;-63
2022/09/06 00:29:22;;;;;;;;;6.50;4.00;;;;;23.78;57.33;100899.63;2109312;27;47356;-64
2022/09/06 00:30:23;;;;;;;;;6.25;5.75;;;;;23.77;57.01;100900.59;2108137;27;47412;-63
2022/09/06 00:31:27;;;;;;;;;4.25;4.25;;;;;23.77;57.30;100908.72;2102133;27;47986;-62
2022/09/06 00:32:27;;;;;;;;;7.00;4.40;;;;;23.77;57.36;100906.03;2106307;27;47349;-62
2022/09/06 00:33:28;;;;;;;;;5.00;4.75;;;;;23.77;57.39;100897.88;2093286;28;47961;-62
2022/09/06 00:34:28;;;;;;;;;6.00;5.50;;;;;23.78;57.65;100907.75;2093567;28;47196;-62
2022/09/06 00:35:28;;;;;;;;;6.00;6.00;;;;;23.78;57.35;100902.34;2105194;27;47413;-62
2022/09/06 00:36:29;;;;;;;;;6.75;5.00;;;;;23.77;57.50;100905.16;2105211;27;47621;-61
2022/09/06 00:37:30;;;;;;;;;7.40;6.40;;;;;23.76;57.64;100908.84;2104664;27;47572;-62
2022/09/06 00:38:30;;;;;;;;;5.75;5.25;;;;;23.75;57.63;100898.97;2103493;27;47436;-62
2022/09/06 00:39:31;;;;;;;;;5.00;5.00;;;;;23.74;57.26;100899.94;2103336;27;47799;-63
2022/09/06 00:40:33;;;;;;;;;4.00;4.00;;;;;23.74;57.18;100908.94;2101813;27;47446;-62
2022/09/06 00:41:34;;;;;;;;;6.60;6.40;;;;;23.72;56.91;100902.75;2101103;27;47608;-61
2022/09/06 00:42:35;;;;;;;;;4.20;4.20;;;;;23.73;57.19;100903.63;2101558;27;47581;-61
2022/09/06 00:43:36;;;;;;;;;3.75;3.75;;;;;23.72;57.06;100896.47;2110947;27;47140;-63
2022/09/06 00:44:37;;;;;;;;;5.75;5.75;;;;;23.72;57.42;100900.06;2110700;27;47876;-62
2022/09/06 00:45:38;;;;;;;;;4.40;4.40;;;;;23.71;57.71;100906.47;2106652;27;47799;-61
2022/09/06 00:46:43;;;;;;;;;5.00;5.00;;;;;23.71;57.30;100898.31;2095201;28;46625;-62
2022/09/06 00:47:44;;;;;;;;;3.75;3.75;;;;;23.73;57.73;100903.63;2100926;28;47441;-63
2022/09/06 00:48:47;;;;;;;;;2.20;2.20;;;;;23.72;57.53;100904.63;2092218;28;47980;-62
2022/09/06 00:49:52;;;;;;;;;6.80;6.80;;;;;23.71;57.51;100903.75;2095387;28;48168;-62
2022/09/06 00:50:59;;;;;;;;;5.80;5.80;;;;;23.71;57.29;100908.31;2099280;27;47659;-62
2022/09/06 00:52:06;;;;;;;;;6.00;5.75;;;;;23.70;57.65;100899.31;2103806;27;47427;-62
2022/09/06 00:53:07;;;;;;;;;4.00;4.00;;;;;23.69;57.51;100900.28;2099245;27;47987;-62
2022/09/06 00:54:08;;;;;;;;;5.00;5.00;;;;;23.68;57.71;100898.56;2106328;27;47329;-62
2022/09/06 00:55:09;;;;;;;;;6.20;5.60;;;;;23.67;57.56;100894.13;2097006;28;47364;-62
2022/09/06 00:56:09;;;;;;;;;5.00;4.50;;;;;23.67;57.53;100896.84;2101118;28;47899;-61
2022/09/06 00:57:12;;;;;;;;;5.67;4.67;;;;;23.67;57.83;100904.09;2106406;27;47368;-61
2022/09/06 00:58:12;;;;;;;;;4.75;4.75;;;;;23.67;57.55;100902.25;2108890;27;48073;-63
2022/09/06 00:59:14;;;;;;;;;7.75;6.00;;;;;23.67;57.63;100902.25;2099903;27;47510;-62
2022/09/06 01:00:15;;;;;;;;;5.00;5.00;;;;;23.67;57.69;100902.25;2101774;27;47231;-62
2022/09/06 01:01:16;;;;;;;;;5.00;5.00;;;;;23.66;57.33;100896.94;2098436;27;47326;-62
2022/09/06 01:02:16;;;;;;;;;5.25;5.00;;;;;23.67;57.66;100898.69;2105855;27;47593;-63
2022/09/06 01:03:18;;;;;;;;;7.00;6.00;;;;;23.66;57.62;100905.94;2105045;27;47112;-61
2022/09/06 01:04:18;;;;;;;;;4.00;4.00;;;;;23.65;57.60;100895.22;2107662;27;47301;-61
2022/09/06 01:05:22;;;;;;;;;7.00;6.33;;;;;23.64;57.66;100897.06;2080299;28;47497;-61
2022/09/06 01:06:29;;;;;;;;;4.00;3.25;;;;;23.64;57.28;100901.63;2086116;28;47950;-61
2022/09/06 01:07:41;;;;;;;;;5.25;5.00;;;;;23.63;57.52;100898.06;2106748;27;47525;-62
2022/09/06 01:09:03;;;;;;;;;4.75;4.75;;;;;23.63;57.41;100897.16;2096351;27;47486;-60
2022/09/06 01:10:15;;;;;;;;;4.50;4.50;;;;;23.64;57.58;100902.47;2101885;27;47578;-62
2022/09/06 01:11:21;;;;;;;;;5.50;5.50;;;;;23.63;57.59;100894.44;2109872;27;47589;-61
2022/09/06 01:12:49;;;;;;;;;8.00;6.60;;;;;23.63;57.28;100900.75;2103241;27;47586;-62
2022/09/06 01:14:17;;;;;;;;;7.40;6.60;;;;;23.63;57.64;100898.06;2102968;27;47619;-61
2022/09/06 01:15:48;;;;;;;;;5.00;5.00;;;;;23.64;57.56;100899.78;2097674;27;48079;-62
2022/09/06 01:17:07;;;;;;;;;6.40;6.40;;;;;23.64;57.56;100899.78;2093806;28;47608;-61
2022/09/06 01:18:14;;;;;;;;;5.00;5.00;;;;;23.64;57.50;100902.47;2096603;27;46873;-62
2022/09/06 01:19:58;;;;;;;;;6.00;5.50;;;;;23.65;57.72;100903.34;2107824;27;47197;-61
2022/09/06 01:21:23;;;;;;;;;6.40;6.40;;;;;23.66;57.78;100899.66;2094976;28;48069;-61
2022/09/06 01:23:03;;;;;;;;;5.40;5.40;;;;;23.65;57.74;100897.94;2094957;28;47538;-62
2022/09/06 01:24:24;;;;;;;;;4.40;4.40;;;;;23.65;57.67;100892.50;2104969;27;47174;-62
2022/09/06 01:25:36;;;;;;;;;8.00;7.00;;;;;23.63;57.78;100895.34;2097694;28;47472;-62
2022/09/06 01:27:13;;;;;;;;;6.40;6.40;;;;;23.63;58.09;100898.06;2097486;27;47190;-62
2022/09/06 01:28:26;;;;;;;;;7.60;6.20;;;;;23.63;57.71;100894.44;2100702;27;47534;-62
2022/09/06 01:29:35;;;;;;;;;4.00;4.00;;;;;23.61;57.58;100901.81;2108150;27;47832;-62
2022/09/06 01:30:43;;;;;;;;;6.80;6.80;;;;;23.60;57.90;100895.53;2103425;27;47581;-62
2022/09/06 01:31:51;;;;;;;;;7.25;7.25;;;;;23.58;57.83;100893.94;2103993;28;47937;-62
2022/09/06 01:33:14;;;;;;;;;5.60;5.60;;;;;23.57;57.90;100890.31;2105286;27;47451;-61
2022/09/06 01:34:23;;;;;;;;;6.00;5.20;;;;;23.57;57.96;100893.03;2103014;27;47542;-62
2022/09/06 01:35:35;;;;;;;;;6.00;6.00;;;;;23.57;57.91;100886.75;2105917;27;48181;-62
2022/09/06 01:36:59;;;;;;;;;4.60;4.00;;;;;23.58;57.95;100892.09;2104659;27;47289;-62
2022/09/06 01:38:00;;;;;;;;;5.40;5.00;;;;;23.59;57.96;100887.53;2097048;27;46333;-61
2022/09/06 01:39:01;;;;;;;;;5.40;4.40;;;;;23.58;57.92;100885.78;2101221;27;47722;-62
2022/09/06 01:40:03;;;;;;;;;7.50;7.25;;;;;23.59;58.19;100887.53;2091085;28;47363;-62
2022/09/06 01:41:03;;;;;;;;;6.20;6.20;;;;;23.59;57.99;100888.38;2086518;28;47457;-62
2022/09/06 01:42:09;;;;;;;;;2.50;2.50;;;;;23.60;58.27;100892.81;2097500;28;47395;-60
2022/09/06 01:43:12;;;;;;;;;4.20;4.20;;;;;23.61;57.93;100890.97;2095409;28;47790;-61
2022/09/06 01:44:12;;;;;;;;;5.20;5.20;;;;;23.61;57.94;100888.28;2100082;28;48072;-61
2022/09/06 01:45:22;;;;;;;;;7.50;7.00;;;;;23.62;58.46;100899.00;2091308;28;47007;-61
2022/09/06 01:46:28;;;;;;;;;6.00;6.00;;;;;23.63;57.95;100897.16;2097451;28;47160;-61
2022/09/06 01:47:32;;;;;;;;;6.00;6.00;;;;;23.62;57.80;100893.56;2107852;27;47802;-62
2022/09/06 01:48:47;;;;;;;;;5.60;5.60;;;;;23.62;57.83;100892.72;2103876;27;47675;-64
2022/09/06 01:49:54;;;;;;;;;4.60;4.60;;;;;23.60;58.07;100892.81;2100279;27;47787;-62
2022/09/06 01:51:39;;;;;;;;;5.40;5.40;;;;;23.60;57.98;100892.81;2096069;28;47540;-61
2022/09/06 01:52:48;;;;;;;;;7.00;6.80;;;;;23.59;57.79;100891.09;2082118;28;47661;-62
2022/09/06 01:53:51;;;;;;;;;7.40;7.40;;;;;23.59;57.80;100892.94;2086520;28;47691;-61
2022/09/06 01:55:16;;;;;;;;;6.40;6.40;;;;;23.60;57.87;100891.97;2086260;28;47904;-62
2022/09/06 01:56:49;;;;;;;;;6.00;5.00;;;;;23.61;57.88;100889.13;2081847;28;45715;-62
2022/09/06 01:58:11;;;;;;;;;6.20;6.20;;;;;23.60;57.96;100892.81;2067637;28;47947;-62
2022/09/06 01:59:32;;;;;;;;;7.40;7.20;;;;;23.59;58.04;100893.81;2068797;28;48133;-61
2022/09/06 02:00:56;;;;;;;;;7.00;7.00;;;;;23.60;58.05;100898.25;2069224;28;47949;-61
2022/09/06 02:02:17;;;;;;;;;5.20;5.20;;;;;23.57;58.01;100893.03;2046272;28;47150;-63
2022/09/06 02:03:36;;;;;;;;;5.40;5.40;;;;;23.56;58.13;100894.00;2045328;28;47707;-61
2022/09/06 02:05:00;;;;;;;;;9.00;8.00;;;;;23.57;58.03;100884.91;2044377;28;47415;-61
2022/09/06 02:06:10;;;;;;;;;6.00;5.25;;;;;23.57;58.40;100886.75;2047284;28;47672;-61
2022/09/06 02:07:21;;;;;;;;;6.60;6.60;;;;;23.56;57.86;100887.72;2050578;28;47524;-61
2022/09/06 02:08:25;;;;;;;;;6.60;6.60;;;;;23.56;58.08;100885.88;2042923;28;47248;-62
2022/09/06 02:09:32;;;;;;;;;5.60;5.00;;;;;23.56;58.29;100885.00;2040476;28;47797;-62
2022/09/06 02:10:38;;;;;;;;;4.60;4.60;;;;;23.57;58.23;100889.44;2045154;28;47462;-62
2022/09/06 02:11:46;;;;;;;;;7.00;7.00;;;;;23.56;58.11;100880.47;2039876;28;47598;-62
2022/09/06 02:12:52;;;;;;;;;7.00;7.00;;;;;23.55;58.00;100880.59;2048176;28;47566;-62
2022/09/06 02:14:03;;;;;;;;;7.00;6.00;;;;;23.54;57.81;100878.84;2044884;28;47443;-62
2022/09/06 02:15:12;;;;;;;;;6.80;5.40;;;;;23.53;57.86;100879.84;2046189;28;48290;-62
2022/09/06 02:16:17;;;;;;;;;6.00;6.00;;;;;23.54;57.81;100877.00;2048151;28;47129;-62
2022/09/06 02:17:22;;;;;;;;;6.40;6.40;;;;;23.54;57.50;100876.13;2048749;28;47783;-62
2022/09/06 02:18:30;;;;;;;;;6.80;6.80;;;;;23.55;57.77;100869.75;2047288;28;47613;-63
2022/09/06 02:19:35;;;;;;;;;6.00;6.00;;;;;23.56;57.83;100864.22;2046854;28;47758;-62
2022/09/06 02:20:42;;;;;;;;;4.40;4.40;;;;;23.57;57.69;100870.50;2044681;28;47719;-61
2022/09/06 02:21:46;;;;;;;;;6.60;6.60;;;;;23.58;57.73;100864.13;2044462;28;47573;-62
2022/09/06 02:22:49;;;;;;;;;6.40;6.40;;;;;23.58;57.79;100866.84;2045472;28;47315;-62
2022/09/06 02:23:53;;;;;;;;;7.40;7.40;;;;;23.60;57.98;100867.59;2047676;28;47710;-61
2022/09/06 02:24:58;;;;;;;;;6.60;6.60;;;;;23.60;57.88;100865.72;2045768;28;47443;-62
2022/09/06 02:26:07;;;;;;;;;5.40;5.40;;;;;23.61;57.95;100864.75;2047676;28;47755;-63
2022/09/06 02:27:07;;;;;;;;;6.40;6.00;;;;;23.60;58.10;100864.88;2044909;28;47825;-61
2022/09/06 02:28:10;;;;;;;;;5.00;5.00;;;;;23.60;57.91;100870.28;2044703;28;48264;-62
2022/09/06 02:29:11;;;;;;;;;6.80;6.80;;;;;23.58;57.88;100880.38;2029856;28;47220;-61
2022/09/06 02:30:12;;;;;;;;;6.80;6.80;;;;;23.55;58.04;100878.72;2029214;28;48085;-61
2022/09/06 02:31:20;;;;;;;;;6.00;6.00;;;;;23.53;57.51;100877.13;2045807;28;47344;-62
2022/09/06 02:32:23;;;;;;;;;5.00;5.00;;;;;23.51;58.17;100881.78;2044806;28;47729;-61
2022/09/06 02:33:29;;;;;;;;;5.60;5.60;;;;;23.49;58.03;100871.03;2045736;28;47624;-61
2022/09/06 02:34:29;;;;;;;;;7.00;7.00;;;;;23.52;58.18;100888.94;2045120;28;47652;-62
2022/09/06 02:35:30;;;;;;;;;7.75;7.50;;;;;23.48;58.31;100881.00;2061042;28;46747;-62
2022/09/06 02:36:31;;;;;;;;;6.25;5.75;;;;;23.49;58.16;100880.03;2072391;28;47483;-63
2022/09/06 02:37:31;;;;;;;;;7.40;5.80;;;;;23.48;57.93;100875.59;2075377;28;47510;-62
2022/09/06 02:38:35;;;;;;;;;6.25;6.25;;;;;23.49;58.46;100881.88;2071692;28;47520;-62
2022/09/06 02:39:37;;;;;;;;;7.80;7.80;;;;;23.49;58.29;100881.88;2072726;27;47428;-63
2022/09/06 02:40:38;;;;;;;;;5.60;5.60;;;;;23.47;58.21;100882.00;2101649;27;49625;-62
2022/09/06 02:41:41;;;;;;;;;6.50;6.50;;;;;23.46;58.19;100877.56;2101493;28;47712;-63
2022/09/06 02:42:41;;;;;;;;;6.00;5.75;;;;;23.46;58.14;100880.25;2103562;27;47918;-62
2022/09/06 02:43:42;;;;;;;;;6.25;6.00;;;;;23.46;58.09;100882.09;2105539;27;47180;-62
2022/09/06 02:44:43;;;;;;;;;6.40;6.40;;;;;23.44;58.02;100876.81;2102821;27;47371;-61
2022/09/06 02:45:44;;;;;;;;;4.80;4.80;;;;;23.44;58.22;100874.09;2094646;28;47575;-61
2022/09/06 02:46:44;;;;;;;;;6.00;5.50;;;;;23.43;58.37;100868.78;2092924;28;45752;-62
2022/09/06 02:47:45;;;;;;;;;4.00;4.00;;;;;23.44;58.26;100873.22;2106189;27;47849;-63
2022/09/06 02:48:45;;;;;;;;;7.00;7.00;;;;;23.45;58.12;100866.84;2100060;27;47919;-62
2022/09/06 02:49:46;;;;;;;;;5.75;5.75;;;;;23.46;58.36;100857.72;2107461;27;47425;-62
2022/09/06 02:50:46;;;;;;;;;5.75;5.75;;;;;23.47;58.28;100865.72;2101854;27;46977;-62
2022/09/06 02:51:46;;;;;;;;;5.25;5.25;;;;;23.47;58.36;100865.72;2105606;27;45883;-62
2022/09/06 02:53:03;;;;;;;;;6.00;6.00;;;;;23.49;58.27;100863.78;2105201;27;47854;-63
2022/09/06 02:54:05;;;;;;;;;9.60;8.80;;;;;23.49;58.45;100869.19;2104921;27;48044;-62
2022/09/06 02:55:06;;;;;;;;;6.20;6.20;;;;;23.49;58.28;100873.75;2094307;28;47433;-62
2022/09/06 02:56:07;;;;;;;;;9.60;8.60;;;;;23.46;58.57;100877.56;2097737;28;47659;-62
2022/09/06 02:57:07;;;;;;;;;7.00;7.00;;;;;23.43;58.57;100879.63;2098873;27;47448;-62
2022/09/06 02:58:10;;;;;;;;;7.50;7.50;;;;;23.40;58.53;100877.16;2102975;27;47891;-62
2022/09/06 02:59:10;;;;;;;;;5.80;5.80;;;;;23.40;58.85;100874.44;2108447;27;47571;-62
2022/09/06 03:00:11;;;;;;;;;8.75;8.75;;;;;23.39;58.61;100873.56;2102156;27;47585;-62
2022/09/06 03:01:11;;;;;;;;;7.75;7.75;;;;;23.40;58.71;100877.16;2097620;28;48282;-62
2022/09/06 03:02:12;;;;;;;;;7.00;7.00;;;;;23.41;58.86;100879.75;2094308;28;46723;-61
2022/09/06 03:03:12;;;;;;;;;8.00;8.00;;;;;23.41;58.93;100874.31;2104506;27;47547;-62
2022/09/06 03:04:12;;;;;;;;;9.50;9.25;;;;;23.41;58.95;100871.63;2104777;27;46726;-62
2022/09/06 03:05:13;;;;;;;;;7.50;7.50;;;;;23.42;58.93;100869.78;2102068;27;47345;-62
2022/09/06 03:06:14;;;;;;;;;10.50;10.00;;;;;23.40;59.09;100867.19;2103851;27;47527;-62
2022/09/06 03:07:14;;;;;;;;;6.50;6.50;;;;;23.42;59.04;100864.34;2101897;27;47461;-62
2022/09/06 03:08:15;;;;;;;;;9.25;8.25;;;;;23.41;58.74;100858.06;2103986;27;47327;-62
2022/09/06 03:09:16;;;;;;;;;10.40;10.40;;;;;23.41;58.53;100863.50;2104016;27;47434;-62
2022/09/06 03:10:18;;;;;;;;;8.50;8.50;;;;;23.41;58.68;100866.19;2102630;27;47628;-62
2022/09/06 03:11:18;;;;;;;;;8.80;8.80;;;;;23.37;58.93;100867.38;2099434;27;47904;-62
2022/09/06 03:12:19;;;;;;;;;7.50;7.50;;;;;23.35;58.75;100880.16;2100728;27;47099;-62
2022/09/06 03:13:19;;;;;;;;;8.25;8.25;;;;;23.32;58.91;100874.97;2100945;27;47252;-62
2022/09/06 03:14:20;;;;;;;;;9.20;7.60;;;;;23.29;58.68;100877.06;2105044;27;46404;-62
2022/09/06 03:15:20;;;;;;;;;10.50;7.50;;;;;23.29;58.82;100882.47;2105122;27;47624;-62
2022/09/06 03:16:21;;;;;;;;;7.50;7.50;;;;;23.27;58.97;100877.16;2103599;27;47018;-62
2022/09/06 03:17:21;;;;;;;;;7.00;7.00;;;;;23.26;58.76;100872.72;2108075;27;47732;-62
2022/09/06 03:18:23;;;;;;;;;10.25;10.25;;;;;23.28;59.05;100883.44;2104028;27;47458;-61
2022/09/06 03:19:23;;;;;;;;;8.20;8.20;;;;;23.28;59.48;100887.03;2105794;27;47875;-62
2022/09/06 03:20:24;;;;;;;;;8.00;7.25;;;;;23.30;58.87;100884.19;2102634;27;47731;-61
2022/09/06 03:21:25;;;;;;;;;7.60;7.00;;;;;23.31;59.19;100877.81;2104771;28;48052;-62
2022/09/06 03:22:25;;;;;;;;;6.50;6.50;;;;;23.32;58.96;100885.81;2106059;27;47099;-62
2022/09/06 03:23:27;;;;;;;;;6.00;6.00;;;;;23.34;59.20;100880.28;2102629;27;47161;-61
2022/09/06 03:24:28;;;;;;;;;9.20;8.40;;;;;23.33;58.81;100892.09;2101523;27;47892;-62
2022/09/06 03:25:28;;;;;;;;;9.00;9.00;;;;;23.32;59.08;100888.53;2102905;27;47676;-61
2022/09/06 03:26:29;;;;;;;;;9.25;9.25;;;;;23.32;58.88;100891.22;2107140;27;47588;-62
2022/09/06 03:27:29;;;;;;;;;9.20;8.20;;;;;23.31;59.09;100883.22;2105242;27;47804;-62
2022/09/06 03:28:30;;;;;;;;;8.75;8.75;;;;;23.32;58.90;100885.81;2102671;27;47696;-62
2022/09/06 03:29:30;;;;;;;;;8.00;8.00;;;;;23.32;58.74;100885.81;2102524;27;47646;-61
2022/09/06 03:30:31;;;;;;;;;7.75;6.75;;;;;23.32;58.80;100887.66;2105171;27;47427;-61
2022/09/06 03:31:31;;;;;;;;;6.25;6.25;;;;;23.31;58.95;100888.63;2103434;27;47212;-62
2022/09/06 03:32:32;;;;;;;;;8.25;8.25;;;;;23.31;58.90;100888.63;2103467;27;47644;-61
2022/09/06 03:33:32;;;;;;;;;9.50;9.50;;;;;23.32;58.98;100893.06;2105289;27;47352;-62
2022/09/06 03:34:32;;;;;;;;;9.00;7.25;;;;;23.31;58.83;100894.06;2105719;27;47252;-61
2022/09/06 03:35:33;;;;;;;;;7.50;7.50;;;;;23.31;58.83;100891.34;2105637;27;47583;-62
2022/09/06 03:36:33;;;;;;;;;9.00;8.00;;;;;23.30;58.71;100895.03;2103328;27;47205;-63
2022/09/06 03:37:34;;;;;;;;;8.00;8.00;;;;;23.31;59.02;100902.19;2109492;27;47466;-62
2022/09/06 03:38:34;;;;;;;;;9.25;9.00;;;;;23.29;58.99;100902.28;2095103;28;47655;-61
2022/09/06 03:39:35;;;;;;;;;10.25;10.25;;;;;23.30;58.88;100903.16;2099298;28;47400;-61
2022/09/06 03:40:35;;;;;;;;;6.00;6.00;;;;;23.30;59.06;100906.72;2104117;27;47554;-61
2022/09/06 03:41:37;;;;;;;;;6.00;6.00;;;;;23.29;58.78;100906.84;2100617;27;46269;-61
2022/09/06 03:42:37;;;;;;;;;7.80;7.80;;;;;23.31;59.05;100910.31;2104581;27;48042;-62
2022/09/06 03:43:37;;;;;;;;;8.00;8.00;;;;;23.31;59.01;100907.59;2104293;27;47828;-61
2022/09/06 03:44:38;;;;;;;;;9.25;9.25;;;;;23.31;58.98;100911.16;2103770;27;47626;-62
2022/09/06 03:45:38;;;;;;;;;10.00;9.50;;;;;23.32;58.77;100920.16;2104111;27;47111;-62
2022/09/06 03:46:38;;;;;;;;;8.25;8.00;;;;;23.31;58.84;100916.59;2104716;27;47850;-62
2022/09/06 03:47:39;;;;;;;;;7.50;7.50;;;;;23.30;58.71;100914.00;2110456;27;47424;-62
2022/09/06 03:48:39;;;;;;;;;5.25;5.25;;;;;23.29;58.93;100914.97;2101774;27;47501;-62
2022/09/06 03:49:40;;;;;;;;;7.75;7.75;;;;;23.28;59.02;100918.66;2089572;28;47572;-62
2022/09/06 03:50:45;;;;;;;;;6.75;6.75;;;;;23.26;58.94;100910.66;2083357;28;47710;-61
2022/09/06 03:51:45;;;;;;;;;9.00;9.00;;;;;23.24;59.00;100920.69;2106025;27;47787;-63
2022/09/06 03:52:45;;;;;;;;;10.00;10.00;;;;;23.23;59.25;100910.84;2102203;27;47412;-62
2022/09/06 03:53:46;;;;;;;;;8.75;8.75;;;;;23.23;58.96;100924.38;2089221;28;45883;-61
2022/09/06 03:54:46;;;;;;;;;8.25;8.25;;;;;23.23;58.99;100920.81;2085338;28;45091;-62
2022/09/06 03:55:49;;;;;;;;;9.50;7.75;;;;;23.23;59.11;100918.09;2083518;28;47286;-62
2022/09/06 03:56:49;;;;;;;;;10.60;8.00;;;;;23.22;59.09;100921.78;2078833;27;49615;-62
2022/09/06 03:57:49;;;;;;;;;8.75;8.75;;;;;23.22;59.15;100929.91;2102858;27;47712;-63
2022/09/06 03:58:50;;;;;;;;;9.00;9.00;;;;;23.22;58.89;100928.06;2108090;27;47767;-62
2022/09/06 03:59:50;;;;;;;;;8.50;8.50;;;;;23.22;58.76;100933.47;2100003;27;47312;-61
2022/09/06 04:00:59;;;;;;;;;11.75;8.50;;;;;23.22;59.36;100932.63;2102406;27;47475;-63
2022/09/06 04:01:59;;;;;;;;;8.00;8.00;;;;;23.23;59.19;100934.34;2086641;28;47980;-61
2022/09/06 04:03:00;;;;;;;;;6.50;6.25;;;;;23.20;59.22;100932.72;2084170;28;47965;-62
2022/09/06 04:04:00;;;;;;;;;9.25;9.00;;;;;23.18;59.27;100934.69;2097788;28;47534;-61
2022/09/06 04:05:01;;;;;;;;;7.75;6.25;;;;;23.14;59.20;100939.47;2078290;28;46554;-61
2022/09/06 04:06:02;;;;;;;;;9.25;9.25;;;;;23.11;59.22;100939.66;2084746;28;47536;-62
2022/09/06 04:07:03;;;;;;;;;9.40;8.60;;;;;23.09;59.61;100935.31;2101460;28;48123;-62
2022/09/06 04:08:04;;;;;;;;;11.50;10.50;;;;;;;;2104129;28;47844;-62
2022/09/06 04:09:05;;;;;;;;;8.40;7.40;;;;;23.04;59.45;100930.25;2093972;28;46386;-62
2022/09/06 04:10:05;;;;;;;;;8.00;8.00;;;;;23.03;59.18;100933.94;2094347;28;47622;-61
2022/09/06 04:11:06;;;;;;;;;7.75;7.75;;;;;23.02;59.47;100936.75;2105466;28;47452;-61
2022/09/06 04:12:06;;;;;;;;;7.00;6.75;;;;;23.00;59.55;100933.28;2100422;28;47565;-62
2022/09/06 04:13:07;;;;;;;;;9.75;9.25;;;;;23.00;59.54;100944.13;2086305;28;48071;-62
2022/09/06 04:14:07;;;;;;;;;10.00;10.00;;;;;22.99;59.70;100942.34;2080373;28;47105;-61
2022/09/06 04:15:08;;;;;;;;;8.50;8.00;;;;;22.98;60.07;100946.03;2101216;28;47674;-61
2022/09/06 04:16:08;;;;;;;;;8.20;7.40;;;;;22.98;59.93;100946.03;2098340;28;47465;-61
2022/09/06 04:17:09;;;;;;;;;9.50;9.50;;;;;22.98;59.79;100944.19;2104092;28;47517;-61
2022/09/06 04:18:09;;;;;;;;;9.00;8.00;;;;;22.96;59.88;100951.56;2103966;28;47388;-61
2022/09/06 04:19:10;;;;;;;;;6.25;6.25;;;;;22.95;59.79;100947.13;2104991;28;47451;-61
2022/09/06 04:20:14;;;;;;;;;8.50;8.50;;;;;22.96;59.80;100943.44;2101698;27;47972;-62
2022/09/06 04:21:14;;;;;;;;;7.20;7.20;;;;;22.95;59.64;100952.53;2084114;28;48006;-62
2022/09/06 04:22:15;;;;;;;;;8.75;7.50;;;;;22.93;59.78;100951.78;2084298;28;48041;-62
2022/09/06 04:23:15;;;;;;;;;8.50;8.50;;;;;22.92;59.47;100950.03;2103118;28;47393;-63
2022/09/06 04:24:16;;;;;;;;;7.75;7.75;;;;;22.89;59.81;100944.84;2103867;27;47748;-61
2022/09/06 04:25:16;;;;;;;;;9.50;9.50;;;;;22.89;59.91;100943.00;2104366;28;47730;-61
2022/09/06 04:26:17;;;;;;;;;12.00;11.50;;;;;22.88;59.99;100948.53;2103859;28;47572;-62
2022/09/06 04:27:17;;;;;;;;;9.75;9.50;;;;;22.86;59.64;100954.03;2097336;28;47489;-62
2022/09/06 04:28:18;;;;;;;;;12.00;12.00;;;;;22.84;59.89;100953.28;2102535;27;47439;-61
2022/09/06 04:29:18;;;;;;;;;12.00;12.00;;;;;22.83;60.09;100950.69;2091587;28;47807;-62
2022/09/06 04:30:19;;;;;;;;;11.00;11.00;;;;;22.81;60.23;100955.28;2095102;28;47692;-61
2022/09/06 04:31:19;;;;;;;;;14.00;14.00;;;;;22.78;60.30;100948.25;2101713;27;47514;-62
2022/09/06 04:32:19;;;;;;;;;14.50;14.25;;;;;22.77;60.17;100951.94;2098452;27;47584;-62
2022/09/06 04:33:24;;;;;;;;;10.00;10.00;;;;;22.75;59.90;100955.72;2103710;28;47209;-62
2022/09/06 04:34:25;;;;;;;;;12.80;11.80;;;;;22.74;60.06;100951.25;2101363;28;47151;-62
2022/09/06 04:35:25;;;;;;;;;15.75;14.75;;;;;22.74;60.03;100962.09;2102145;28;47956;-61
2022/09/06 04:36:25;;;;;;;;;16.00;15.00;;;;;22.71;60.31;100963.16;2101215;27;47547;-61
2022/09/06 04:37:26;;;;;;;;;13.75;13.75;;;;;22.71;60.44;100965.88;2099425;28;47220;-62
2022/09/06 04:38:29;;;;;;;;;14.00;14.00;;;;;22.71;60.52;100965.00;2101025;27;47082;-62
2022/09/06 04:39:29;;;;;;;;;14.40;14.40;;;;;22.71;60.32;100957.75;2100526;28;47802;-61
2022/09/06 04:40:29;;;;;;;;;15.75;15.75;;;;;22.73;60.47;100965.78;2102978;28;47717;-63
2022/09/06 04:41:30;;;;;;;;;16.00;15.00;;;;;22.73;60.06;100972.03;2089774;28;47983;-61
2022/09/06 04:42:30;;;;;;;;;13.50;13.50;;;;;22.75;60.57;100969.25;2084670;28;47914;-63
2022/09/06 04:43:31;;;;;;;;;12.00;12.00;;;;;22.74;60.33;100967.50;2096169;28;47801;-62
2022/09/06 04:44:31;;;;;;;;;12.00;12.00;;;;;22.73;60.24;100969.34;2102316;27;47676;-62
2022/09/06 04:45:32;;;;;;;;;14.50;14.50;;;;;22.74;60.00;100967.50;2100761;28;47154;-62
2022/09/06 04:46:32;;;;;;;;;7.25;6.00;;;;;22.73;60.36;100971.19;2103441;27;47618;-61
2022/09/06 04:47:33;;;;;;;;;8.00;8.00;;;;;22.74;60.09;100964.78;2101810;27;48253;-63
2022/09/06 04:48:33;;;;;;;;;11.75;11.75;;;;;22.74;60.11;100968.41;2103568;27;47568;-62
2022/09/06 04:49:34;;;;;;;;;9.75;8.50;;;;;22.73;59.93;100969.34;2097141;28;47119;-62
2022/09/06 04:50:35;;;;;;;;;12.25;12.00;;;;;22.71;60.08;100974.00;2101040;28;47301;-61
2022/09/06 04:51:37;;;;;;;;;13.25;11.75;;;;;22.72;59.71;100977.56;2102693;28;47772;-63
2022/09/06 04:52:38;;;;;;;;;9.00;8.40;;;;;22.72;59.89;100982.97;2101145;28;47569;-61
2022/09/06 04:53:38;;;;;;;;;11.00;10.00;;;;;22.71;59.72;100979.41;2102559;28;47904;-62
2022/09/06 04:54:39;;;;;;;;;13.00;12.00;;;;;22.70;59.55;100977.66;2099239;27;47718;-61
2022/09/06 04:55:39;;;;;;;;;10.75;10.75;;;;;22.71;59.52;100983.94;2102181;28;46899;-61
2022/09/06 04:56:39;;;;;;;;;9.50;8.50;;;;;22.69;59.88;100984.06;2102722;27;47780;-61
2022/09/06 04:57:40;;;;;;;;;10.75;9.50;;;;;22.68;59.70;100976.06;2102825;28;47699;-62